sensor_id;sensor_type;location;lat;lon;timestamp;temperature;humidity
60287;DHT22;46141;52.382;5.270;2023-06-22T00:00:49;23.80;75.40
60287;DHT22;46141;52.382;5.270;2023-06-22T00:03:19;23.80;75.50
60287;DHT22;46141;52.382;5.270;2023-06-22T00:05:46;23.70;75.60
60287;DHT22;46141;52.382;5.270;2023-06-22T00:08:12;23.70;75.60
60287;DHT22;46141;52.382;5.270;2023-06-22T00:10:38;23.70;75.80
60287;DHT22;46141;52.382;5.270;2023-06-22T00:13:05;23.70;75.80
60287;DHT22;46141;52.382;5.270;2023-06-22T00:15:31;23.70;76.00
60287;DHT22;46141;52.382;5.270;2023-06-22T00:17:57;23.70;76.10
60287;DHT22;46141;52.382;5.270;2023-06-22T00:20:23;23.70;76.20
60287;DHT22;46141;52.382;5.270;2023-06-22T00:22:53;23.70;76.20
60287;DHT22;46141;52.382;5.270;2023-06-22T00:25:19;23.70;76.20
60287;DHT22;46141;52.382;5.270;2023-06-22T00:27:44;23.60;76.30
60287;DHT22;46141;52.382;5.270;2023-06-22T00:30:10;23.60;76.30
60287;DHT22;46141;52.382;5.270;2023-06-22T00:32:36;23.60;76.40
60287;DHT22;46141;52.382;5.270;2023-06-22T00:35:02;23.50;76.40
60287;DHT22;46141;52.382;5.270;2023-06-22T00:37:28;23.50;76.50
60287;DHT22;46141;52.382;5.270;2023-06-22T00:39:55;23.50;76.50
60287;DHT22;46141;52.382;5.270;2023-06-22T00:42:21;23.50;76.60
60287;DHT22;46141;52.382;5.270;2023-06-22T00:44:47;23.50;76.70
60287;DHT22;46141;52.382;5.270;2023-06-22T00:47:18;23.50;76.90
60287;DHT22;46141;52.382;5.270;2023-06-22T00:49:44;23.50;76.20
60287;DHT22;46141;52.382;5.270;2023-06-22T00:52:11;23.60;76.20
60287;DHT22;46141;52.382;5.270;2023-06-22T00:54:42;23.60;76.00
60287;DHT22;46141;52.382;5.270;2023-06-22T00:57:14;23.60;75.90
60287;DHT22;46141;52.382;5.270;2023-06-22T00:59:43;23.70;75.80
60287;DHT22;46141;52.382;5.270;2023-06-22T01:02:09;23.70;75.80
60287;DHT22;46141;52.382;5.270;2023-06-22T01:04:37;23.70;75.70
60287;DHT22;46141;52.382;5.270;2023-06-22T01:07:19;23.70;75.70
60287;DHT22;46141;52.382;5.270;2023-06-22T01:10:07;23.70;75.60
60287;DHT22;46141;52.382;5.270;2023-06-22T01:12:40;23.70;75.50
60287;DHT22;46141;52.382;5.270;2023-06-22T01:15:14;23.70;75.50
60287;DHT22;46141;52.382;5.270;2023-06-22T01:17:42;23.70;75.40
60287;DHT22;46141;52.382;5.270;2023-06-22T01:20:10;23.70;75.60
60287;DHT22;46141;52.382;5.270;2023-06-22T01:23:13;23.70;75.30
60287;DHT22;46141;52.382;5.270;2023-06-22T01:29:05;23.60;75.20
60287;DHT22;46141;52.382;5.270;2023-06-22T01:31:32;23.70;75.20
60287;DHT22;46141;52.382;5.270;2023-06-22T01:34:03;23.70;75.20
60287;DHT22;46141;52.382;5.270;2023-06-22T01:36:31;23.60;75.00
60287;DHT22;46141;52.382;5.270;2023-06-22T01:38:59;23.70;75.10
60287;DHT22;46141;52.382;5.270;2023-06-22T01:41:33;23.60;75.00
60287;DHT22;46141;52.382;5.270;2023-06-22T01:44:01;23.60;75.00
60287;DHT22;46141;52.382;5.270;2023-06-22T01:46:29;23.60;75.00
60287;DHT22;46141;52.382;5.270;2023-06-22T01:48:55;23.60;75.00
60287;DHT22;46141;52.382;5.270;2023-06-22T01:51:21;23.60;75.00
60287;DHT22;46141;52.382;5.270;2023-06-22T01:53:47;23.60;74.90
60287;DHT22;46141;52.382;5.270;2023-06-22T01:56:15;23.60;75.00
60287;DHT22;46141;52.382;5.270;2023-06-22T01:58:54;23.60;74.90
60287;DHT22;46141;52.382;5.270;2023-06-22T02:01:28;23.60;74.90
60287;DHT22;46141;52.382;5.270;2023-06-22T02:04:06;23.60;74.90
60287;DHT22;46141;52.382;5.270;2023-06-22T02:06:37;23.60;74.80
60287;DHT22;46141;52.382;5.270;2023-06-22T02:09:09;23.50;74.70
60287;DHT22;46141;52.382;5.270;2023-06-22T02:11:39;23.50;74.60
60287;DHT22;46141;52.382;5.270;2023-06-22T02:14:07;23.50;74.70
60287;DHT22;46141;52.382;5.270;2023-06-22T02:16:33;23.50;74.70
60287;DHT22;46141;52.382;5.270;2023-06-22T02:19:01;23.50;74.70
60287;DHT22;46141;52.382;5.270;2023-06-22T02:21:32;23.50;74.60
60287;DHT22;46141;52.382;5.270;2023-06-22T02:23:58;23.50;74.60
60287;DHT22;46141;52.382;5.270;2023-06-22T02:26:25;23.50;74.60
60287;DHT22;46141;52.382;5.270;2023-06-22T02:28:52;23.50;74.50
60287;DHT22;46141;52.382;5.270;2023-06-22T02:31:18;23.50;74.60
60287;DHT22;46141;52.382;5.270;2023-06-22T02:33:44;23.50;74.50
60287;DHT22;46141;52.382;5.270;2023-06-22T02:36:10;23.50;74.50
60287;DHT22;46141;52.382;5.270;2023-06-22T02:38:41;23.50;74.50
60287;DHT22;46141;52.382;5.270;2023-06-22T02:41:14;23.50;74.40
60287;DHT22;46141;52.382;5.270;2023-06-22T02:43:44;23.50;74.60
60287;DHT22;46141;52.382;5.270;2023-06-22T02:46:10;23.50;74.40
60287;DHT22;46141;52.382;5.270;2023-06-22T02:48:35;23.50;74.40
60287;DHT22;46141;52.382;5.270;2023-06-22T02:54:23;23.50;74.50
60287;DHT22;46141;52.382;5.270;2023-06-22T02:56:48;23.40;74.50
60287;DHT22;46141;52.382;5.270;2023-06-22T02:59:16;23.50;74.50
60287;DHT22;46141;52.382;5.270;2023-06-22T03:01:41;23.40;74.50
60287;DHT22;46141;52.382;5.270;2023-06-22T03:04:08;23.40;74.60
60287;DHT22;46141;52.382;5.270;2023-06-22T03:06:34;23.40;75.20
60287;DHT22;46141;52.382;5.270;2023-06-22T03:09:03;23.40;74.60
60287;DHT22;46141;52.382;5.270;2023-06-22T03:11:33;23.40;74.60
60287;DHT22;46141;52.382;5.270;2023-06-22T03:14:00;23.40;74.60
60287;DHT22;46141;52.382;5.270;2023-06-22T03:16:26;23.40;74.60
60287;DHT22;46141;52.382;5.270;2023-06-22T03:18:52;23.40;74.60
60287;DHT22;46141;52.382;5.270;2023-06-22T03:21:21;23.40;74.70
60287;DHT22;46141;52.382;5.270;2023-06-22T03:23:47;23.40;74.60
60287;DHT22;46141;52.382;5.270;2023-06-22T03:26:12;23.40;74.60
60287;DHT22;46141;52.382;5.270;2023-06-22T03:28:38;23.40;74.70
60287;DHT22;46141;52.382;5.270;2023-06-22T03:31:04;23.30;74.60
60287;DHT22;46141;52.382;5.270;2023-06-22T03:33:32;23.40;74.50
60287;DHT22;46141;52.382;5.270;2023-06-22T03:35:57;23.40;74.50
60287;DHT22;46141;52.382;5.270;2023-06-22T03:38:23;23.40;74.60
60287;DHT22;46141;52.382;5.270;2023-06-22T03:40:49;23.40;74.60
60287;DHT22;46141;52.382;5.270;2023-06-22T03:43:14;23.40;74.60
60287;DHT22;46141;52.382;5.270;2023-06-22T03:45:40;23.30;74.50
60287;DHT22;46141;52.382;5.270;2023-06-22T03:48:06;23.30;74.60
60287;DHT22;46141;52.382;5.270;2023-06-22T03:50:31;23.30;74.50
60287;DHT22;46141;52.382;5.270;2023-06-22T03:52:57;23.30;74.60
60287;DHT22;46141;52.382;5.270;2023-06-22T03:55:22;23.30;74.50
60287;DHT22;46141;52.382;5.270;2023-06-22T03:57:48;23.30;74.50
60287;DHT22;46141;52.382;5.270;2023-06-22T04:00:14;23.30;74.50
60287;DHT22;46141;52.382;5.270;2023-06-22T04:02:41;23.40;74.70
60287;DHT22;46141;52.382;5.270;2023-06-22T04:05:09;23.30;74.70
60287;DHT22;46141;52.382;5.270;2023-06-22T04:07:35;23.30;74.70
60287;DHT22;46141;52.382;5.270;2023-06-22T04:10:03;23.30;74.60
60287;DHT22;46141;52.382;5.270;2023-06-22T04:12:29;23.30;74.70
60287;DHT22;46141;52.382;5.270;2023-06-22T04:14:54;23.30;74.70
60287;DHT22;46141;52.382;5.270;2023-06-22T04:17:20;23.30;74.70
60287;DHT22;46141;52.382;5.270;2023-06-22T04:19:46;23.30;74.70
60287;DHT22;46141;52.382;5.270;2023-06-22T04:22:11;23.30;74.80
60287;DHT22;46141;52.382;5.270;2023-06-22T04:24:37;23.30;74.90
60287;DHT22;46141;52.382;5.270;2023-06-22T04:27:03;23.30;75.00
60287;DHT22;46141;52.382;5.270;2023-06-22T04:29:30;23.30;75.10
60287;DHT22;46141;52.382;5.270;2023-06-22T04:31:56;23.30;75.10
60287;DHT22;46141;52.382;5.270;2023-06-22T04:34:25;23.30;75.30
60287;DHT22;46141;52.382;5.270;2023-06-22T04:36:53;23.20;75.30
60287;DHT22;46141;52.382;5.270;2023-06-22T04:39:19;23.30;75.40
60287;DHT22;46141;52.382;5.270;2023-06-22T04:41:45;23.30;75.40
60287;DHT22;46141;52.382;5.270;2023-06-22T04:44:16;23.30;75.50
60287;DHT22;46141;52.382;5.270;2023-06-22T04:46:54;23.30;75.70
60287;DHT22;46141;52.382;5.270;2023-06-22T04:49:26;23.30;75.80
60287;DHT22;46141;52.382;5.270;2023-06-22T04:52:14;23.30;75.80
60287;DHT22;46141;52.382;5.270;2023-06-22T04:54:43;23.30;75.90
60287;DHT22;46141;52.382;5.270;2023-06-22T04:57:16;23.30;76.10
60287;DHT22;46141;52.382;5.270;2023-06-22T04:59:42;23.30;76.10
60287;DHT22;46141;52.382;5.270;2023-06-22T05:02:08;23.30;76.20
60287;DHT22;46141;52.382;5.270;2023-06-22T05:04:34;23.30;76.20
60287;DHT22;46141;52.382;5.270;2023-06-22T05:07:04;23.40;76.40
60287;DHT22;46141;52.382;5.270;2023-06-22T05:09:30;23.40;76.40
60287;DHT22;46141;52.382;5.270;2023-06-22T05:11:56;23.40;76.50
60287;DHT22;46141;52.382;5.270;2023-06-22T05:14:22;23.40;76.60
60287;DHT22;46141;52.382;5.270;2023-06-22T05:16:48;23.40;76.70
60287;DHT22;46141;52.382;5.270;2023-06-22T05:19:14;23.40;76.60
60287;DHT22;46141;52.382;5.270;2023-06-22T05:21:40;23.40;76.60
60287;DHT22;46141;52.382;5.270;2023-06-22T05:24:05;23.30;77.60
60287;DHT22;46141;52.382;5.270;2023-06-22T05:26:33;23.30;78.20
60287;DHT22;46141;52.382;5.270;2023-06-22T05:29:00;23.30;78.60
60287;DHT22;46141;52.382;5.270;2023-06-22T05:31:27;23.20;79.30
60287;DHT22;46141;52.382;5.270;2023-06-22T05:33:54;23.20;79.70
60287;DHT22;46141;52.382;5.270;2023-06-22T05:36:21;23.20;80.40
60287;DHT22;46141;52.382;5.270;2023-06-22T05:38:51;23.10;81.20
60287;DHT22;46141;52.382;5.270;2023-06-22T05:41:17;23.10;81.50
60287;DHT22;46141;52.382;5.270;2023-06-22T05:43:42;23.10;81.90
60287;DHT22;46141;52.382;5.270;2023-06-22T05:46:08;23.10;82.40
60287;DHT22;46141;52.382;5.270;2023-06-22T05:48:35;23.20;83.30
60287;DHT22;46141;52.382;5.270;2023-06-22T05:51:01;23.20;83.50
60287;DHT22;46141;52.382;5.270;2023-06-22T05:53:26;23.20;83.60
60287;DHT22;46141;52.382;5.270;2023-06-22T05:55:52;23.20;83.90
60287;DHT22;46141;52.382;5.270;2023-06-22T05:58:18;23.20;84.20
60287;DHT22;46141;52.382;5.270;2023-06-22T06:00:44;23.30;84.40
60287;DHT22;46141;52.382;5.270;2023-06-22T06:03:10;23.30;84.70
60287;DHT22;46141;52.382;5.270;2023-06-22T06:05:36;23.30;84.30
60287;DHT22;46141;52.382;5.270;2023-06-22T06:08:05;23.30;84.80
60287;DHT22;46141;52.382;5.270;2023-06-22T06:10:35;23.30;85.40
60287;DHT22;46141;52.382;5.270;2023-06-22T06:13:01;23.30;85.60
60287;DHT22;46141;52.382;5.270;2023-06-22T06:15:33;23.30;85.70
60287;DHT22;46141;52.382;5.270;2023-06-22T06:17:59;23.30;86.10
60287;DHT22;46141;52.382;5.270;2023-06-22T06:20:26;23.40;85.70
60287;DHT22;46141;52.382;5.270;2023-06-22T06:22:53;23.30;85.70
60287;DHT22;46141;52.382;5.270;2023-06-22T06:25:19;23.40;85.80
60287;DHT22;46141;52.382;5.270;2023-06-22T06:27:47;23.30;86.00
60287;DHT22;46141;52.382;5.270;2023-06-22T06:30:15;23.30;86.10
60287;DHT22;46141;52.382;5.270;2023-06-22T06:32:42;23.30;86.40
60287;DHT22;46141;52.382;5.270;2023-06-22T06:35:12;23.40;86.50
60287;DHT22;46141;52.382;5.270;2023-06-22T06:37:42;23.40;86.50
60287;DHT22;46141;52.382;5.270;2023-06-22T06:40:09;23.40;86.30
60287;DHT22;46141;52.382;5.270;2023-06-22T06:42:39;23.40;86.50
60287;DHT22;46141;52.382;5.270;2023-06-22T06:45:10;23.40;86.90
60287;DHT22;46141;52.382;5.270;2023-06-22T06:47:36;23.40;86.80
60287;DHT22;46141;52.382;5.270;2023-06-22T06:50:03;23.40;86.80
60287;DHT22;46141;52.382;5.270;2023-06-22T06:52:29;23.50;86.40
60287;DHT22;46141;52.382;5.270;2023-06-22T06:54:55;23.50;86.40
60287;DHT22;46141;52.382;5.270;2023-06-22T06:57:20;23.50;85.90
60287;DHT22;46141;52.382;5.270;2023-06-22T06:59:48;23.50;86.10
60287;DHT22;46141;52.382;5.270;2023-06-22T07:02:14;23.50;85.90
60287;DHT22;46141;52.382;5.270;2023-06-22T07:04:40;23.60;85.80
60287;DHT22;46141;52.382;5.270;2023-06-22T07:07:05;23.60;85.70
60287;DHT22;46141;52.382;5.270;2023-06-22T07:09:31;23.50;85.30
60287;DHT22;46141;52.382;5.270;2023-06-22T07:11:57;23.60;85.20
60287;DHT22;46141;52.382;5.270;2023-06-22T07:14:22;23.60;85.00
60287;DHT22;46141;52.382;5.270;2023-06-22T07:16:48;23.60;84.90
60287;DHT22;46141;52.382;5.270;2023-06-22T07:19:14;23.70;85.40
60287;DHT22;46141;52.382;5.270;2023-06-22T07:21:39;23.70;84.80
60287;DHT22;46141;52.382;5.270;2023-06-22T07:24:06;23.70;84.80
60287;DHT22;46141;52.382;5.270;2023-06-22T07:26:33;23.70;85.20
60287;DHT22;46141;52.382;5.270;2023-06-22T07:28:58;23.70;84.90
60287;DHT22;46141;52.382;5.270;2023-06-22T07:31:24;23.70;85.20
60287;DHT22;46141;52.382;5.270;2023-06-22T07:33:50;23.70;85.00
60287;DHT22;46141;52.382;5.270;2023-06-22T07:36:17;23.70;84.90
60287;DHT22;46141;52.382;5.270;2023-06-22T07:38:43;23.70;85.20
60287;DHT22;46141;52.382;5.270;2023-06-22T07:41:09;23.80;85.00
60287;DHT22;46141;52.382;5.270;2023-06-22T07:43:34;23.80;84.80
60287;DHT22;46141;52.382;5.270;2023-06-22T07:46:03;23.80;84.60
60287;DHT22;46141;52.382;5.270;2023-06-22T07:48:29;23.80;84.40
60287;DHT22;46141;52.382;5.270;2023-06-22T07:50:55;23.90;84.10
60287;DHT22;46141;52.382;5.270;2023-06-22T07:53:21;23.90;84.10
60287;DHT22;46141;52.382;5.270;2023-06-22T07:55:47;23.90;83.70
60287;DHT22;46141;52.382;5.270;2023-06-22T07:58:13;24.00;83.80
60287;DHT22;46141;52.382;5.270;2023-06-22T08:00:39;24.00;83.00
60287;DHT22;46141;52.382;5.270;2023-06-22T08:03:04;24.10;82.20
60287;DHT22;46141;52.382;5.270;2023-06-22T08:05:31;24.20;82.00
60287;DHT22;46141;52.382;5.270;2023-06-22T08:07:57;24.20;81.50
60287;DHT22;46141;52.382;5.270;2023-06-22T08:10:23;24.20;81.20
60287;DHT22;46141;52.382;5.270;2023-06-22T08:12:49;24.30;80.60
60287;DHT22;46141;52.382;5.270;2023-06-22T08:15:15;24.20;81.40
60287;DHT22;46141;52.382;5.270;2023-06-22T08:17:40;24.30;81.40
60287;DHT22;46141;52.382;5.270;2023-06-22T08:20:08;24.30;80.70
60287;DHT22;46141;52.382;5.270;2023-06-22T08:22:38;24.30;80.50
60287;DHT22;46141;52.382;5.270;2023-06-22T08:25:04;24.40;80.10
60287;DHT22;46141;52.382;5.270;2023-06-22T08:27:30;24.40;80.00
60287;DHT22;46141;52.382;5.270;2023-06-22T08:29:59;24.40;80.00
60287;DHT22;46141;52.382;5.270;2023-06-22T08:32:29;24.50;79.50
60287;DHT22;46141;52.382;5.270;2023-06-22T08:34:56;24.40;79.70
60287;DHT22;46141;52.382;5.270;2023-06-22T08:37:23;24.50;80.10
60287;DHT22;46141;52.382;5.270;2023-06-22T08:39:59;24.50;79.90
60287;DHT22;46141;52.382;5.270;2023-06-22T08:42:26;24.60;79.70
60287;DHT22;46141;52.382;5.270;2023-06-22T08:44:52;24.60;79.90
60287;DHT22;46141;52.382;5.270;2023-06-22T08:47:19;24.70;79.50
60287;DHT22;46141;52.382;5.270;2023-06-22T08:49:45;24.70;79.50
60287;DHT22;46141;52.382;5.270;2023-06-22T08:52:11;24.70;79.60
60287;DHT22;46141;52.382;5.270;2023-06-22T08:54:36;24.70;79.50
60287;DHT22;46141;52.382;5.270;2023-06-22T08:57:02;24.80;79.40
60287;DHT22;46141;52.382;5.270;2023-06-22T08:59:28;24.80;79.60
60287;DHT22;46141;52.382;5.270;2023-06-22T09:01:54;24.80;79.20
60287;DHT22;46141;52.382;5.270;2023-06-22T09:04:19;24.80;79.30
60287;DHT22;46141;52.382;5.270;2023-06-22T09:06:48;24.90;79.10
60287;DHT22;46141;52.382;5.270;2023-06-22T09:09:16;24.90;78.80
60287;DHT22;46141;52.382;5.270;2023-06-22T09:11:42;25.00;78.90
60287;DHT22;46141;52.382;5.270;2023-06-22T09:14:08;25.00;78.90
60287;DHT22;46141;52.382;5.270;2023-06-22T09:16:34;25.10;78.80
60287;DHT22;46141;52.382;5.270;2023-06-22T09:19:00;25.00;78.30
60287;DHT22;46141;52.382;5.270;2023-06-22T09:21:26;25.00;78.20
60287;DHT22;46141;52.382;5.270;2023-06-22T09:23:52;25.10;78.10
60287;DHT22;46141;52.382;5.270;2023-06-22T09:26:18;25.10;78.20
60287;DHT22;46141;52.382;5.270;2023-06-22T09:28:44;25.20;78.10
60287;DHT22;46141;52.382;5.270;2023-06-22T09:31:10;25.20;78.20
60287;DHT22;46141;52.382;5.270;2023-06-22T09:33:37;25.30;77.80
60287;DHT22;46141;52.382;5.270;2023-06-22T09:36:06;25.30;77.90
60287;DHT22;46141;52.382;5.270;2023-06-22T09:38:35;25.30;77.60
60287;DHT22;46141;52.382;5.270;2023-06-22T09:41:01;25.30;77.40
60287;DHT22;46141;52.382;5.270;2023-06-22T09:43:27;25.40;77.40
60287;DHT22;46141;52.382;5.270;2023-06-22T09:45:53;25.40;77.20
60287;DHT22;46141;52.382;5.270;2023-06-22T09:48:19;25.50;77.20
60287;DHT22;46141;52.382;5.270;2023-06-22T09:50:45;25.40;76.90
60287;DHT22;46141;52.382;5.270;2023-06-22T09:53:10;25.40;76.80
60287;DHT22;46141;52.382;5.270;2023-06-22T09:55:36;25.50;76.70
60287;DHT22;46141;52.382;5.270;2023-06-22T09:58:02;25.50;76.60
60287;DHT22;46141;52.382;5.270;2023-06-22T10:00:27;25.50;76.20
60287;DHT22;46141;52.382;5.270;2023-06-22T10:02:53;25.50;76.20
60287;DHT22;46141;52.382;5.270;2023-06-22T10:05:19;25.50;75.80
60287;DHT22;46141;52.382;5.270;2023-06-22T10:07:44;25.60;76.00
60287;DHT22;46141;52.382;5.270;2023-06-22T10:10:11;25.60;76.50
60287;DHT22;46141;52.382;5.270;2023-06-22T10:12:48;25.60;75.70
60287;DHT22;46141;52.382;5.270;2023-06-22T10:15:19;25.60;75.50
60287;DHT22;46141;52.382;5.270;2023-06-22T10:17:46;25.60;75.50
60287;DHT22;46141;52.382;5.270;2023-06-22T10:20:13;25.60;75.20
60287;DHT22;46141;52.382;5.270;2023-06-22T10:22:40;25.60;75.10
60287;DHT22;46141;52.382;5.270;2023-06-22T10:25:07;25.60;75.20
60287;DHT22;46141;52.382;5.270;2023-06-22T10:27:33;25.60;75.10
60287;DHT22;46141;52.382;5.270;2023-06-22T10:29:58;25.60;75.30
60287;DHT22;46141;52.382;5.270;2023-06-22T10:32:24;25.60;75.80
60287;DHT22;46141;52.382;5.270;2023-06-22T10:34:50;25.60;75.90
60287;DHT22;46141;52.382;5.270;2023-06-22T10:37:15;25.60;76.10
60287;DHT22;46141;52.382;5.270;2023-06-22T10:39:41;25.60;76.60
60287;DHT22;46141;52.382;5.270;2023-06-22T10:42:07;25.60;76.90
60287;DHT22;46141;52.382;5.270;2023-06-22T10:44:33;25.60;76.90
60287;DHT22;46141;52.382;5.270;2023-06-22T10:46:58;25.60;77.00
60287;DHT22;46141;52.382;5.270;2023-06-22T10:49:24;25.60;77.30
60287;DHT22;46141;52.382;5.270;2023-06-22T10:51:50;25.50;77.20
60287;DHT22;46141;52.382;5.270;2023-06-22T10:54:15;25.50;76.90
60287;DHT22;46141;52.382;5.270;2023-06-22T10:56:43;25.60;77.00
60287;DHT22;46141;52.382;5.270;2023-06-22T10:59:09;25.60;76.80
60287;DHT22;46141;52.382;5.270;2023-06-22T11:01:35;25.50;76.50
60287;DHT22;46141;52.382;5.270;2023-06-22T11:04:02;25.50;77.50
60287;DHT22;46141;52.382;5.270;2023-06-22T11:06:28;25.50;77.40
60287;DHT22;46141;52.382;5.270;2023-06-22T11:08:53;25.50;77.40
60287;DHT22;46141;52.382;5.270;2023-06-22T11:11:19;25.50;77.70
60287;DHT22;46141;52.382;5.270;2023-06-22T11:13:44;25.50;78.30
60287;DHT22;46141;52.382;5.270;2023-06-22T11:16:11;25.50;78.80
60287;DHT22;46141;52.382;5.270;2023-06-22T11:18:37;25.40;78.80
60287;DHT22;46141;52.382;5.270;2023-06-22T11:21:02;25.50;78.90
60287;DHT22;46141;52.382;5.270;2023-06-22T11:23:28;25.40;79.20
60287;DHT22;46141;52.382;5.270;2023-06-22T11:25:54;25.40;79.50
60287;DHT22;46141;52.382;5.270;2023-06-22T11:28:20;25.40;79.60
60287;DHT22;46141;52.382;5.270;2023-06-22T11:30:46;25.30;79.70
60287;DHT22;46141;52.382;5.270;2023-06-22T11:33:12;25.40;79.70
60287;DHT22;46141;52.382;5.270;2023-06-22T11:35:37;25.40;79.70
60287;DHT22;46141;52.382;5.270;2023-06-22T11:38:03;25.40;80.00
60287;DHT22;46141;52.382;5.270;2023-06-22T11:40:30;25.40;80.30
60287;DHT22;46141;52.382;5.270;2023-06-22T11:42:56;25.40;81.20
60287;DHT22;46141;52.382;5.270;2023-06-22T11:45:21;25.40;81.30
60287;DHT22;46141;52.382;5.270;2023-06-22T11:47:47;25.40;81.30
60287;DHT22;46141;52.382;5.270;2023-06-22T11:50:13;25.40;81.30
60287;DHT22;46141;52.382;5.270;2023-06-22T11:52:38;25.40;81.20
60287;DHT22;46141;52.382;5.270;2023-06-22T11:55:05;25.40;79.70
60287;DHT22;46141;52.382;5.270;2023-06-22T11:57:36;25.40;77.70
60287;DHT22;46141;52.382;5.270;2023-06-22T12:00:02;25.40;77.40
60287;DHT22;46141;52.382;5.270;2023-06-22T12:02:32;25.40;77.00
60287;DHT22;46141;52.382;5.270;2023-06-22T12:04:57;25.50;76.90
60287;DHT22;46141;52.382;5.270;2023-06-22T12:07:23;25.40;76.50
60287;DHT22;46141;52.382;5.270;2023-06-22T12:09:49;25.40;75.50
60287;DHT22;46141;52.382;5.270;2023-06-22T12:12:15;25.40;75.00
60287;DHT22;46141;52.382;5.270;2023-06-22T12:14:40;25.40;75.20
60287;DHT22;46141;52.382;5.270;2023-06-22T12:17:06;25.40;75.10
60287;DHT22;46141;52.382;5.270;2023-06-22T12:19:32;25.40;74.60
60287;DHT22;46141;52.382;5.270;2023-06-22T12:21:57;25.30;73.80
60287;DHT22;46141;52.382;5.270;2023-06-22T12:24:23;25.30;73.90
60287;DHT22;46141;52.382;5.270;2023-06-22T12:26:49;25.30;73.10
60287;DHT22;46141;52.382;5.270;2023-06-22T12:29:14;25.30;72.90
60287;DHT22;46141;52.382;5.270;2023-06-22T12:31:40;25.30;73.00
60287;DHT22;46141;52.382;5.270;2023-06-22T12:34:07;25.30;73.10
60287;DHT22;46141;52.382;5.270;2023-06-22T12:36:32;25.30;73.30
60287;DHT22;46141;52.382;5.270;2023-06-22T12:38:58;25.30;73.80
60287;DHT22;46141;52.382;5.270;2023-06-22T12:41:23;25.30;73.80
60287;DHT22;46141;52.382;5.270;2023-06-22T12:43:49;25.30;75.10
60287;DHT22;46141;52.382;5.270;2023-06-22T12:46:15;25.20;75.10
60287;DHT22;46141;52.382;5.270;2023-06-22T12:48:40;25.30;75.90
60287;DHT22;46141;52.382;5.270;2023-06-22T12:51:09;25.30;77.50
60287;DHT22;46141;52.382;5.270;2023-06-22T12:53:35;25.20;77.80
60287;DHT22;46141;52.382;5.270;2023-06-22T12:56:00;25.20;78.80
60287;DHT22;46141;52.382;5.270;2023-06-22T12:58:26;25.10;80.60
60287;DHT22;46141;52.382;5.270;2023-06-22T13:00:52;25.00;80.70
60287;DHT22;46141;52.382;5.270;2023-06-22T13:03:17;25.10;80.80
60287;DHT22;46141;52.382;5.270;2023-06-22T13:05:43;25.00;80.80
60287;DHT22;46141;52.382;5.270;2023-06-22T13:08:09;25.00;81.50
60287;DHT22;46141;52.382;5.270;2023-06-22T13:10:36;25.00;82.40
60287;DHT22;46141;52.382;5.270;2023-06-22T13:13:01;25.00;82.40
60287;DHT22;46141;52.382;5.270;2023-06-22T13:15:28;25.00;82.80
60287;DHT22;46141;52.382;5.270;2023-06-22T13:17:54;25.00;83.90
60287;DHT22;46141;52.382;5.270;2023-06-22T13:20:20;25.00;84.00
60287;DHT22;46141;52.382;5.270;2023-06-22T13:22:46;24.90;85.10
60287;DHT22;46141;52.382;5.270;2023-06-22T13:25:12;24.90;85.70
60287;DHT22;46141;52.382;5.270;2023-06-22T13:27:42;24.90;86.10
60287;DHT22;46141;52.382;5.270;2023-06-22T13:30:08;24.90;86.10
60287;DHT22;46141;52.382;5.270;2023-06-22T13:32:34;24.90;86.90
60287;DHT22;46141;52.382;5.270;2023-06-22T13:35:00;24.90;86.60
60287;DHT22;46141;52.382;5.270;2023-06-22T13:37:26;24.90;87.70
60287;DHT22;46141;52.382;5.270;2023-06-22T13:39:52;24.90;87.70
60287;DHT22;46141;52.382;5.270;2023-06-22T13:42:18;24.90;87.70
60287;DHT22;46141;52.382;5.270;2023-06-22T13:44:44;24.90;87.30
60287;DHT22;46141;52.382;5.270;2023-06-22T13:47:09;25.00;87.20
60287;DHT22;46141;52.382;5.270;2023-06-22T13:49:35;25.00;86.80
60287;DHT22;46141;52.382;5.270;2023-06-22T13:52:01;25.00;86.30
60287;DHT22;46141;52.382;5.270;2023-06-22T13:54:28;25.10;86.20
60287;DHT22;46141;52.382;5.270;2023-06-22T13:56:54;25.10;85.80
60287;DHT22;46141;52.382;5.270;2023-06-22T13:59:20;25.10;86.00
60287;DHT22;46141;52.382;5.270;2023-06-22T14:01:46;25.00;85.80
60287;DHT22;46141;52.382;5.270;2023-06-22T14:04:12;25.10;85.70
60287;DHT22;46141;52.382;5.270;2023-06-22T14:06:38;25.10;85.50
60287;DHT22;46141;52.382;5.270;2023-06-22T14:09:04;25.10;85.40
60287;DHT22;46141;52.382;5.270;2023-06-22T14:11:29;25.10;85.20
60287;DHT22;46141;52.382;5.270;2023-06-22T14:13:55;25.10;85.50
60287;DHT22;46141;52.382;5.270;2023-06-22T14:16:20;25.10;85.50
60287;DHT22;46141;52.382;5.270;2023-06-22T14:18:46;25.10;85.50
60287;DHT22;46141;52.382;5.270;2023-06-22T14:21:12;25.10;85.40
60287;DHT22;46141;52.382;5.270;2023-06-22T14:23:37;25.10;85.20
60287;DHT22;46141;52.382;5.270;2023-06-22T14:26:03;25.10;85.50
60287;DHT22;46141;52.382;5.270;2023-06-22T14:28:29;25.10;84.60
60287;DHT22;46141;52.382;5.270;2023-06-22T14:30:54;25.20;84.50
60287;DHT22;46141;52.382;5.270;2023-06-22T14:33:21;25.10;84.30
60287;DHT22;46141;52.382;5.270;2023-06-22T14:35:47;25.10;84.50
60287;DHT22;46141;52.382;5.270;2023-06-22T14:38:13;25.20;84.80
60287;DHT22;46141;52.382;5.270;2023-06-22T14:40:38;25.10;84.60
60287;DHT22;46141;52.382;5.270;2023-06-22T14:43:04;25.10;84.60
60287;DHT22;46141;52.382;5.270;2023-06-22T14:45:30;25.10;84.40
60287;DHT22;46141;52.382;5.270;2023-06-22T14:47:55;25.10;84.40
60287;DHT22;46141;52.382;5.270;2023-06-22T14:50:21;25.10;84.60
60287;DHT22;46141;52.382;5.270;2023-06-22T14:52:46;25.10;84.80
60287;DHT22;46141;52.382;5.270;2023-06-22T14:55:12;25.10;84.90
60287;DHT22;46141;52.382;5.270;2023-06-22T14:57:38;25.10;85.10
60287;DHT22;46141;52.382;5.270;2023-06-22T15:00:04;25.00;84.90
60287;DHT22;46141;52.382;5.270;2023-06-22T15:02:31;25.00;85.10
60287;DHT22;46141;52.382;5.270;2023-06-22T15:04:57;25.10;84.90
60287;DHT22;46141;52.382;5.270;2023-06-22T15:07:23;25.00;84.50
60287;DHT22;46141;52.382;5.270;2023-06-22T15:09:48;25.00;84.40
60287;DHT22;46141;52.382;5.270;2023-06-22T15:12:14;25.00;84.50
60287;DHT22;46141;52.382;5.270;2023-06-22T15:14:41;25.00;85.00
60287;DHT22;46141;52.382;5.270;2023-06-22T15:17:08;25.00;85.30
60287;DHT22;46141;52.382;5.270;2023-06-22T15:19:35;25.00;85.70
60287;DHT22;46141;52.382;5.270;2023-06-22T15:22:03;25.00;86.10
60287;DHT22;46141;52.382;5.270;2023-06-22T15:24:28;25.00;86.30
60287;DHT22;46141;52.382;5.270;2023-06-22T15:26:54;25.00;86.40
60287;DHT22;46141;52.382;5.270;2023-06-22T15:29:20;25.00;86.50
60287;DHT22;46141;52.382;5.270;2023-06-22T15:31:46;25.00;86.70
60287;DHT22;46141;52.382;5.270;2023-06-22T15:34:13;25.00;86.90